createdAt,value
2022-11-05T00:00:47.685Z,9.45
2022-11-05T00:01:49.176Z,9.45
2022-11-05T00:02:47.656Z,9.44
2022-11-05T00:03:47.750Z,9.51
2022-11-05T00:04:47.625Z,9.54
2022-11-05T00:05:47.606Z,9.57
2022-11-05T00:06:47.604Z,9.54
2022-11-05T00:07:48.527Z,9.55
2022-11-05T00:08:47.578Z,9.51
2022-11-05T00:09:47.562Z,9.51
2022-11-05T00:10:47.546Z,9.52
2022-11-05T00:11:47.528Z,9.52
2022-11-05T00:12:47.524Z,9.55
2022-11-05T00:13:47.508Z,9.51
2022-11-05T00:14:47.497Z,9.57
2022-11-05T00:15:47.479Z,9.51
2022-11-05T00:16:47.458Z,9.52
2022-11-05T00:17:47.449Z,9.51
2022-11-05T00:18:47.438Z,9.47
2022-11-05T00:19:47.423Z,9.50
2022-11-05T00:20:47.420Z,9.45
2022-11-05T00:21:47.399Z,9.51
2022-11-05T00:22:47.389Z,9.48
2022-11-05T00:23:47.381Z,9.45
2022-11-05T00:24:47.359Z,9.45
2022-11-05T00:25:47.385Z,9.42
2022-11-05T00:26:47.331Z,9.41
2022-11-05T00:27:47.312Z,9.42
2022-11-05T00:28:47.310Z,9.42
2022-11-05T00:29:47.293Z,9.41
2022-11-05T00:30:47.282Z,9.37
2022-11-05T00:31:47.274Z,9.40
2022-11-05T00:32:47.251Z,9.42
2022-11-05T00:33:47.251Z,9.42
2022-11-05T05:20:59.974Z,9.44
2022-11-05T05:21:08.720Z,7.88
2022-11-05T05:22:04.730Z,7.88
2022-11-05T05:23:04.723Z,7.87
2022-11-05T05:24:04.702Z,7.88
2022-11-05T05:25:04.688Z,7.83
2022-11-05T05:26:04.663Z,7.84
2022-11-05T05:27:04.673Z,7.86
2022-11-05T05:28:04.654Z,7.83
2022-11-05T05:29:04.633Z,7.81
2022-11-05T05:30:04.616Z,7.78
2022-11-05T05:31:04.596Z,7.80
2022-11-05T05:32:04.584Z,7.81
2022-11-05T05:33:04.589Z,7.80
2022-11-05T05:34:04.565Z,7.81
2022-11-05T05:35:04.553Z,7.83
2022-11-05T05:36:09.966Z,7.78
2022-11-05T05:37:05.568Z,7.84
2022-11-05T05:38:04.547Z,7.78
2022-11-05T05:39:04.497Z,7.78
2022-11-05T05:40:04.519Z,7.77
2022-11-05T05:41:04.466Z,7.76
2022-11-05T05:42:04.447Z,7.71
2022-11-05T05:43:04.444Z,7.71
2022-11-05T05:44:04.437Z,7.66
2022-11-05T05:45:04.419Z,7.71
2022-11-05T05:46:04.402Z,7.66
2022-11-05T05:47:04.411Z,7.69
2022-11-05T05:48:04.385Z,7.69
2022-11-05T05:49:07.975Z,7.64
2022-11-05T05:50:05.338Z,7.61
2022-11-05T05:51:04.343Z,7.58
2022-11-05T05:52:04.324Z,7.58
2022-11-05T05:53:04.353Z,7.55
2022-11-05T05:54:04.291Z,7.54
2022-11-05T05:55:04.275Z,7.55
2022-11-05T05:56:04.260Z,7.54
2022-11-05T05:57:04.260Z,7.49
2022-11-05T05:58:04.246Z,7.50
2022-11-05T05:59:04.225Z,7.50
2022-11-05T06:00:04.211Z,7.47
2022-11-05T06:01:04.190Z,7.47
2022-11-05T06:02:04.272Z,7.44
2022-11-05T06:03:04.493Z,7.40
2022-11-05T06:04:04.162Z,7.36
2022-11-05T06:05:04.142Z,7.39
2022-11-05T06:06:04.145Z,7.37
2022-11-05T06:07:04.123Z,7.33
2022-11-05T06:08:04.115Z,7.31
2022-11-05T06:09:04.092Z,7.31
2022-11-05T06:10:04.072Z,7.28
2022-11-05T06:11:04.132Z,7.25
2022-11-05T06:12:04.081Z,7.25
2022-11-05T06:13:04.062Z,7.25
2022-11-05T06:14:04.025Z,7.26
2022-11-05T06:15:04.003Z,7.28
2022-11-05T06:16:03.995Z,7.33
2022-11-05T06:17:03.985Z,7.29
2022-11-05T06:18:03.975Z,7.33
2022-11-05T06:19:03.955Z,7.33
2022-11-05T06:20:03.945Z,7.39
2022-11-05T06:21:03.945Z,7.37
2022-11-05T06:22:03.936Z,7.34
2022-11-05T06:23:03.926Z,7.36
2022-11-05T06:24:03.929Z,7.36
2022-11-05T06:25:03.878Z,7.39
2022-11-05T06:26:04.089Z,7.34
2022-11-05T06:27:03.857Z,7.34
2022-11-05T06:28:03.826Z,7.34
2022-11-05T06:29:03.827Z,7.37
2022-11-05T06:30:03.798Z,7.37
2022-11-05T06:31:03.796Z,7.39
2022-11-05T06:32:03.774Z,7.39
2022-11-05T06:33:03.769Z,7.39
2022-11-05T06:34:03.743Z,7.39
2022-11-05T06:35:03.728Z,7.39
2022-11-05T06:36:03.721Z,7.40
2022-11-05T06:37:03.717Z,7.42
2022-11-05T06:38:03.697Z,7.44
2022-11-05T06:39:04.635Z,7.47
2022-11-05T06:40:03.659Z,7.52
2022-11-05T06:41:09.888Z,7.52
2022-11-05T06:42:17.955Z,7.55
2022-11-05T06:43:04.648Z,7.60
2022-11-05T06:44:03.646Z,7.60
2022-11-05T06:45:03.596Z,7.62
2022-11-05T06:46:03.595Z,7.64
2022-11-05T06:47:03.662Z,7.64
2022-11-05T06:48:03.560Z,7.66
2022-11-05T06:49:03.541Z,7.68
2022-11-05T06:50:03.540Z,7.71
2022-11-05T06:51:03.522Z,7.71
2022-11-05T06:52:03.510Z,7.73
2022-11-05T06:53:03.513Z,7.74
2022-11-05T06:54:03.477Z,7.76
2022-11-05T06:55:03.472Z,7.78
2022-11-05T06:56:03.441Z,7.78
2022-11-05T06:57:03.468Z,7.84
2022-11-05T06:58:03.424Z,7.94
2022-11-05T06:59:03.422Z,7.99
2022-11-05T07:00:07.663Z,8.04
2022-11-05T07:01:03.471Z,8.06
2022-11-05T07:02:03.424Z,8.12
2022-11-05T07:03:03.362Z,8.14
2022-11-05T07:04:03.334Z,8.19
2022-11-05T07:05:03.324Z,8.24
2022-11-05T07:06:03.314Z,8.32
2022-11-05T07:07:03.323Z,8.37
2022-11-05T07:08:04.261Z,8.42
2022-11-05T07:09:04.278Z,8.44
2022-11-05T07:10:03.295Z,8.50
2022-11-05T07:11:03.251Z,8.55
2022-11-05T07:12:03.235Z,8.56
2022-11-05T07:13:07.799Z,8.62
2022-11-05T07:14:04.216Z,8.65
2022-11-05T07:15:03.202Z,8.68
2022-11-05T07:16:03.191Z,8.77
2022-11-05T07:17:03.175Z,8.78
2022-11-05T07:18:03.156Z,8.86
2022-11-05T07:19:03.136Z,8.88
2022-11-05T07:20:03.118Z,8.88
2022-11-05T07:21:03.117Z,8.96
2022-11-05T07:22:03.098Z,8.99
2022-11-05T07:23:03.093Z,9.04
2022-11-05T07:24:03.068Z,9.09
2022-11-05T07:25:03.058Z,9.12
2022-11-05T07:26:03.039Z,9.18
2022-11-05T07:27:03.049Z,9.19
2022-11-05T07:28:03.972Z,9.19
2022-11-05T07:29:03.008Z,9.23
2022-11-05T07:30:02.990Z,9.24
2022-11-05T07:31:02.990Z,9.27
2022-11-05T07:32:02.972Z,9.33
2022-11-05T07:33:02.961Z,9.34
2022-11-05T07:34:02.940Z,9.36
2022-11-05T07:35:02.945Z,9.36
2022-11-05T07:36:02.915Z,9.36
2022-11-05T07:37:02.921Z,9.37
2022-11-05T07:38:02.881Z,9.37
2022-11-05T07:39:02.880Z,9.37
2022-11-05T07:40:02.856Z,9.44
2022-11-05T07:41:02.852Z,9.44
2022-11-05T07:42:02.832Z,9.41
2022-11-05T07:43:02.813Z,9.33
2022-11-05T07:44:02.793Z,9.40
2022-11-05T07:45:02.796Z,9.42
2022-11-05T07:46:02.773Z,9.42
2022-11-05T07:47:02.784Z,9.37
2022-11-05T07:48:02.753Z,9.37
2022-11-05T07:49:02.736Z,9.37
2022-11-05T07:50:02.715Z,9.42
2022-11-05T07:51:02.717Z,9.45
2022-11-05T07:52:02.695Z,9.47
2022-11-05T07:53:02.698Z,9.50
2022-11-05T07:54:02.667Z,9.52
2022-11-05T07:55:02.656Z,9.59
2022-11-05T07:56:02.636Z,9.62
2022-11-05T07:57:02.647Z,9.63
2022-11-05T07:58:02.615Z,9.69
2022-11-05T07:59:02.627Z,9.73
2022-11-05T08:00:02.628Z,9.78
2022-11-05T08:01:02.745Z,9.85
2022-11-05T08:02:02.718Z,9.90
2022-11-05T08:03:07.720Z,9.96
2022-11-05T08:04:03.538Z,10.03
2022-11-05T08:05:02.514Z,10.05
2022-11-05T08:06:02.515Z,10.09
2022-11-05T08:07:02.513Z,10.08
2022-11-05T08:08:02.473Z,10.14
2022-11-05T08:09:02.481Z,10.16
2022-11-05T08:10:02.459Z,10.17
2022-11-05T08:11:02.440Z,10.16
2022-11-05T08:12:03.395Z,10.14
2022-11-05T08:13:02.421Z,10.10
2022-11-05T08:14:02.407Z,10.06
2022-11-05T08:15:02.380Z,10.03
2022-11-05T08:16:05.043Z,9.98
2022-11-05T08:17:02.381Z,9.93
2022-11-05T08:18:02.348Z,9.93
2022-11-05T08:19:02.333Z,9.96
2022-11-05T08:20:02.322Z,9.93
2022-11-05T08:21:03.341Z,9.98
2022-11-05T08:22:03.233Z,10.03
2022-11-05T08:23:02.274Z,10.08
2022-11-05T08:24:02.262Z,10.12
2022-11-05T08:25:06.822Z,10.21
2022-11-05T08:26:03.215Z,10.30
2022-11-05T08:27:02.566Z,10.31
2022-11-05T08:28:02.208Z,10.39
2022-11-05T08:29:02.198Z,10.45
2022-11-05T08:30:02.355Z,10.54
2022-11-05T08:31:03.138Z,10.58
2022-11-05T08:32:03.113Z,10.57
2022-11-05T08:33:02.165Z,10.58
2022-11-05T08:34:02.743Z,10.60
2022-11-05T08:35:02.112Z,10.57
2022-11-05T08:36:02.111Z,10.60
2022-11-05T08:37:02.105Z,10.61
2022-11-05T08:38:03.005Z,10.60
2022-11-05T08:39:02.069Z,10.65
2022-11-05T08:40:02.047Z,10.60
2022-11-05T08:41:02.043Z,10.49
2022-11-05T08:42:02.024Z,10.48
2022-11-05T08:43:02.020Z,10.42
2022-11-05T08:44:02.016Z,10.28
2022-11-05T08:45:02.043Z,10.24
2022-11-05T08:46:02.009Z,10.23
2022-11-05T08:47:02.925Z,10.24
2022-11-05T08:48:01.950Z,10.28
2022-11-05T08:49:01.933Z,10.26
2022-11-05T08:50:02.863Z,10.39
2022-11-05T08:51:01.930Z,10.36
2022-11-05T08:52:01.900Z,10.42
2022-11-05T08:53:01.880Z,10.43
2022-11-05T08:54:01.883Z,10.36
2022-11-05T08:55:01.871Z,10.36
2022-11-05T08:56:02.805Z,10.34
2022-11-05T08:57:01.841Z,10.28
2022-11-05T08:58:01.810Z,10.26
2022-11-05T08:59:01.801Z,10.27
2022-11-05T09:00:02.741Z,10.28
2022-11-05T09:01:05.004Z,10.30
2022-11-05T09:02:01.861Z,10.28
2022-11-05T09:03:01.761Z,10.38
2022-11-05T09:04:01.738Z,10.48
2022-11-05T09:05:01.712Z,10.41
2022-11-05T09:06:01.727Z,10.49
2022-11-05T09:07:01.682Z,10.54
2022-11-05T09:08:02.629Z,10.54
2022-11-05T09:09:01.664Z,10.57
2022-11-05T09:10:01.645Z,10.62
2022-11-05T09:11:01.648Z,10.67
2022-11-05T09:12:17.922Z,10.65
2022-11-05T09:13:02.608Z,10.62
2022-11-05T09:14:01.595Z,10.60
2022-11-05T09:15:01.577Z,10.61
2022-11-05T09:16:01.597Z,10.58
2022-11-05T09:17:02.534Z,10.55
2022-11-05T09:18:01.557Z,10.48
2022-11-05T09:19:01.539Z,10.45
2022-11-05T09:20:01.690Z,10.46
2022-11-05T09:21:02.447Z,10.48
2022-11-05T09:22:01.495Z,10.55
2022-11-05T09:23:01.466Z,10.58
2022-11-05T09:24:01.465Z,10.58
2022-11-05T09:25:01.442Z,10.58
2022-11-05T09:26:01.451Z,10.58
2022-11-05T09:27:01.418Z,10.61
2022-11-05T09:28:01.406Z,10.55
2022-11-05T09:29:01.388Z,10.55
2022-11-05T09:30:01.379Z,10.62
2022-11-05T09:31:01.369Z,10.64
2022-11-05T09:32:01.350Z,10.65
2022-11-05T09:33:01.349Z,10.72
2022-11-05T09:34:01.352Z,10.73
2022-11-05T09:35:01.329Z,10.75
2022-11-05T09:36:01.307Z,10.79
2022-11-05T09:37:01.295Z,10.82
2022-11-05T09:38:01.560Z,10.83
2022-11-05T09:39:01.260Z,10.82
2022-11-05T09:40:01.261Z,10.82
2022-11-05T09:41:01.245Z,10.80
2022-11-05T09:42:01.231Z,10.72
2022-11-05T09:43:01.202Z,10.70
2022-11-05T09:44:01.228Z,10.67
2022-11-05T09:45:01.179Z,10.65
2022-11-05T09:46:01.195Z,10.68
2022-11-05T09:47:01.152Z,10.65
2022-11-05T09:48:01.149Z,10.73
2022-11-05T09:49:01.130Z,10.70
2022-11-05T09:50:01.109Z,10.78
2022-11-05T09:51:01.103Z,10.78
2022-11-05T09:52:01.094Z,10.82
2022-11-05T09:53:01.067Z,10.83
2022-11-05T09:54:01.060Z,10.80
2022-11-05T09:55:01.044Z,10.82
2022-11-05T09:56:01.045Z,10.86
2022-11-05T09:57:01.025Z,10.93
2022-11-05T09:58:01.016Z,11.01
2022-11-05T09:59:01.222Z,11.09
2022-11-05T10:00:00.995Z,11.08
2022-11-05T10:01:01.001Z,11.03
2022-11-05T10:02:01.058Z,11.08
2022-11-05T10:03:00.945Z,11.05
2022-11-05T10:04:00.926Z,11.01
2022-11-05T10:05:06.442Z,11.03
2022-11-05T10:06:01.909Z,11.04
2022-11-05T10:07:00.896Z,10.95
2022-11-05T10:08:00.880Z,10.93
2022-11-05T10:09:00.869Z,10.95
2022-11-05T10:10:00.849Z,10.95
2022-11-05T10:11:00.849Z,11.01
2022-11-05T10:12:00.818Z,11.01
2022-11-05T10:13:00.809Z,10.97
2022-11-05T10:14:00.800Z,11.01
2022-11-05T10:15:00.786Z,11.11
2022-11-05T10:16:00.791Z,11.09
2022-11-05T10:17:00.750Z,11.11
2022-11-05T10:18:00.731Z,11.16
2022-11-05T10:19:00.721Z,11.27
2022-11-05T10:20:00.719Z,11.36
2022-11-05T10:21:00.732Z,11.38
2022-11-05T10:22:06.608Z,11.37
2022-11-05T10:23:01.682Z,11.38
2022-11-05T10:24:00.663Z,11.37
2022-11-05T10:25:00.650Z,11.25
2022-11-05T10:26:00.669Z,11.25
2022-11-05T10:27:00.624Z,11.36
2022-11-05T10:28:00.600Z,11.41
2022-11-05T10:29:00.588Z,11.49
2022-11-05T10:30:00.624Z,11.45
2022-11-05T10:31:00.564Z,11.37
2022-11-05T10:32:00.544Z,11.43
2022-11-05T10:33:01.484Z,11.48
2022-11-05T10:34:00.523Z,11.51
2022-11-05T10:35:00.507Z,11.62
2022-11-05T10:36:00.507Z,11.70
2022-11-05T10:37:00.486Z,11.82
2022-11-05T10:38:00.466Z,11.76
2022-11-05T10:39:00.456Z,11.67
2022-11-05T10:40:00.458Z,11.73
2022-11-05T10:41:00.435Z,11.73
2022-11-05T10:42:00.417Z,11.84
2022-11-05T10:43:00.408Z,11.85
2022-11-05T10:44:01.347Z,11.93
2022-11-05T10:45:00.378Z,11.97
2022-11-05T10:46:00.368Z,12.05
2022-11-05T10:47:00.350Z,12.14
2022-11-05T10:48:00.339Z,12.25
2022-11-05T10:49:00.320Z,12.29
2022-11-05T10:50:00.328Z,12.32
2022-11-05T10:51:00.302Z,12.30
2022-11-05T10:52:00.280Z,12.40
2022-11-05T10:53:01.232Z,12.41
2022-11-05T10:54:02.192Z,12.48
2022-11-05T10:55:00.267Z,12.47
2022-11-05T10:56:00.229Z,12.32
2022-11-05T10:57:00.221Z,12.21
2022-11-05T10:58:00.204Z,12.11
2022-11-05T10:59:00.192Z,12.04
2022-11-05T11:00:00.481Z,12.11
2022-11-05T11:01:00.212Z,12.04
2022-11-05T11:02:00.239Z,12.03
2022-11-05T11:03:00.140Z,11.93
2022-11-05T11:04:00.124Z,11.99
2022-11-05T11:05:00.113Z,11.97
2022-11-05T11:06:00.095Z,12.05
2022-11-05T11:07:00.080Z,11.91
2022-11-05T11:08:00.087Z,11.84
2022-11-05T11:09:00.076Z,11.89
2022-11-05T11:10:00.045Z,11.93
2022-11-05T11:11:00.025Z,11.88
2022-11-05T11:12:00.053Z,11.91
2022-11-05T11:13:00.065Z,11.99
2022-11-05T11:13:59.986Z,12.05
2022-11-05T11:15:00.008Z,12.18
2022-11-05T11:15:59.991Z,12.32
2022-11-05T11:16:59.947Z,12.43
2022-11-05T11:17:59.996Z,12.51
2022-11-05T11:18:59.918Z,12.62
2022-11-05T11:19:59.925Z,12.76
2022-11-05T11:20:59.888Z,12.93
2022-11-05T11:21:59.896Z,13.06
2022-11-05T11:22:59.869Z,13.08
2022-11-05T11:23:59.869Z,13.20
2022-11-05T11:24:59.858Z,13.19
2022-11-05T11:25:59.833Z,13.20
2022-11-05T11:26:59.819Z,13.29
2022-11-05T11:27:59.810Z,13.26
2022-11-05T11:28:59.791Z,13.29
2022-11-05T11:29:59.796Z,13.51
2022-11-05T11:31:00.712Z,13.61
2022-11-05T11:31:59.781Z,13.79
2022-11-05T11:32:59.746Z,13.72
2022-11-05T11:33:59.732Z,13.80
2022-11-05T11:34:59.724Z,13.82
2022-11-05T11:35:59.703Z,13.97
2022-11-05T11:36:59.694Z,14.08
2022-11-05T11:37:59.676Z,14.21
2022-11-05T11:38:59.654Z,14.22
2022-11-05T11:39:59.925Z,14.21
2022-11-05T11:40:59.624Z,14.23
2022-11-05T11:41:59.622Z,14.27
2022-11-05T11:42:59.597Z,14.15
2022-11-05T11:43:59.603Z,14.08
2022-11-05T11:44:59.589Z,14.05
2022-11-05T11:46:05.408Z,14.13
2022-11-05T11:47:01.506Z,13.91
2022-11-05T11:47:59.548Z,13.73
2022-11-05T11:48:59.517Z,13.54
2022-11-05T11:49:59.530Z,13.40
2022-11-05T11:50:59.507Z,13.35
2022-11-05T11:51:59.500Z,13.26
2022-11-05T11:52:59.469Z,13.11
2022-11-05T11:53:59.466Z,12.91
2022-11-05T11:54:59.460Z,12.87
2022-11-05T11:55:59.437Z,12.91
2022-11-05T11:56:59.420Z,12.96
2022-11-05T11:57:59.431Z,12.91
2022-11-05T11:58:59.427Z,12.91
2022-11-05T12:00:14.668Z,12.84
2022-11-05T12:01:01.329Z,12.81
2022-11-05T12:01:59.437Z,12.77
2022-11-05T12:03:02.071Z,12.79
2022-11-05T12:03:59.340Z,12.87
2022-11-05T12:04:59.320Z,12.87
2022-11-05T12:05:59.323Z,12.84
2022-11-05T12:06:59.291Z,12.81
2022-11-05T12:07:59.275Z,12.77
2022-11-05T12:09:05.350Z,12.66
2022-11-05T12:10:00.262Z,12.65
2022-11-05T12:10:59.234Z,12.63
2022-11-05T12:11:59.249Z,12.68
2022-11-05T12:12:59.215Z,12.66
2022-11-05T12:13:59.211Z,12.65
2022-11-05T12:14:59.184Z,12.68
2022-11-05T12:15:59.173Z,12.76
2022-11-05T12:16:59.154Z,12.93
2022-11-05T12:17:59.146Z,12.95
2022-11-05T12:18:59.133Z,13.01
2022-11-05T12:19:59.117Z,12.99
2022-11-05T12:20:59.146Z,12.91
2022-11-05T12:21:59.095Z,12.95
2022-11-05T12:22:59.078Z,12.99
2022-11-05T12:23:59.071Z,12.99
2022-11-05T12:24:59.047Z,13.08
2022-11-05T12:25:59.036Z,13.16
2022-11-05T12:26:59.989Z,13.19
2022-11-05T12:27:59.009Z,13.21
2022-11-05T12:29:17.946Z,13.23
2022-11-05T12:29:59.981Z,13.19
2022-11-05T12:30:58.970Z,13.13
2022-11-05T12:31:58.966Z,12.98
2022-11-05T12:32:59.064Z,12.86
2022-11-05T12:33:59.071Z,12.65
2022-11-05T12:35:00.402Z,12.47
2022-11-05T12:35:58.913Z,12.36
2022-11-05T12:36:58.893Z,12.25
2022-11-05T12:37:58.880Z,12.08
2022-11-05T12:38:58.923Z,12.04
2022-11-05T12:39:58.862Z,11.95
2022-11-05T12:40:58.844Z,11.85
2022-11-05T12:41:58.829Z,11.70
2022-11-05T12:42:58.813Z,11.67
2022-11-05T12:43:58.815Z,11.64
2022-11-05T12:44:59.034Z,11.64
2022-11-05T12:45:58.794Z,11.62
2022-11-05T12:46:58.768Z,11.64
2022-11-05T12:47:58.748Z,11.59
2022-11-05T12:48:58.746Z,11.61
2022-11-05T12:49:58.716Z,11.62
2022-11-05T12:50:58.723Z,11.58
2022-11-05T12:51:58.685Z,11.54
2022-11-05T12:52:58.682Z,11.49
2022-11-05T12:53:58.668Z,11.51
2022-11-05T12:54:58.647Z,11.48
2022-11-05T12:55:58.646Z,11.41
2022-11-05T12:56:58.627Z,11.41
2022-11-05T12:57:58.618Z,11.33
2022-11-05T12:58:58.611Z,11.36
2022-11-05T12:59:58.578Z,11.36
2022-11-05T13:00:58.671Z,11.37
2022-11-05T13:01:58.650Z,11.36
2022-11-05T13:02:58.561Z,11.37
2022-11-05T13:03:58.548Z,11.34
2022-11-05T13:04:58.536Z,11.38
2022-11-05T13:06:04.532Z,11.38
2022-11-05T13:06:59.502Z,11.40
2022-11-05T13:07:58.481Z,11.48
2022-11-05T13:08:58.471Z,11.51
2022-11-05T13:09:58.449Z,11.56
2022-11-05T13:10:58.443Z,11.56
2022-11-05T13:11:58.432Z,11.58
2022-11-05T13:12:58.418Z,11.55
2022-11-05T13:13:58.410Z,11.52
2022-11-05T13:14:58.412Z,11.54
2022-11-05T13:15:58.363Z,11.55
2022-11-05T13:16:58.381Z,11.55
2022-11-05T13:17:58.342Z,11.56
2022-11-05T13:18:58.344Z,11.64
2022-11-05T13:19:59.273Z,11.69
2022-11-05T13:20:58.305Z,11.69
2022-11-05T13:21:58.293Z,11.84
2022-11-05T13:22:58.277Z,11.79
2022-11-05T13:23:58.265Z,11.84
2022-11-05T13:24:58.250Z,11.77
2022-11-05T13:25:58.240Z,11.82
2022-11-05T13:26:58.230Z,11.82
2022-11-05T13:27:58.216Z,11.82
2022-11-05T13:28:58.205Z,11.80
2022-11-05T13:29:58.189Z,11.76
2022-11-05T13:30:58.166Z,11.80
2022-11-05T13:31:58.159Z,11.85
2022-11-05T13:32:58.154Z,11.93
2022-11-05T13:33:58.161Z,11.91
2022-11-05T13:34:58.118Z,11.88
2022-11-05T13:35:58.110Z,11.88
2022-11-05T13:36:59.044Z,11.89
2022-11-05T13:37:58.089Z,11.89
2022-11-05T13:38:58.089Z,11.89
2022-11-05T13:39:58.059Z,11.93
2022-11-05T13:40:58.039Z,11.95
2022-11-05T13:41:58.033Z,11.89
2022-11-05T13:42:58.021Z,11.89
2022-11-05T13:43:58.010Z,11.87
2022-11-05T13:44:57.980Z,11.88
2022-11-05T13:46:02.811Z,11.82
2022-11-05T13:46:58.960Z,11.84
2022-11-05T13:47:57.950Z,11.79
2022-11-05T13:48:57.941Z,11.76
2022-11-05T13:49:57.933Z,11.74
2022-11-05T13:50:57.912Z,11.77
2022-11-05T13:51:57.895Z,11.80
2022-11-05T13:52:57.882Z,11.80
2022-11-05T13:53:57.877Z,11.76
2022-11-05T13:54:57.855Z,11.74
2022-11-05T13:55:57.833Z,11.73
2022-11-05T13:56:57.824Z,11.73
2022-11-05T13:57:57.807Z,11.70
2022-11-05T13:58:57.804Z,11.71
2022-11-05T13:59:57.794Z,11.67
2022-11-05T14:00:57.816Z,11.64
2022-11-05T14:01:57.805Z,11.62
2022-11-05T14:02:57.745Z,11.64
2022-11-05T14:03:57.738Z,11.59
2022-11-05T14:05:00.935Z,11.59
2022-11-05T14:05:57.717Z,11.62
2022-11-05T14:06:57.687Z,11.54
2022-11-05T14:07:57.677Z,11.55
2022-11-05T14:08:58.635Z,11.55
2022-11-05T14:09:57.647Z,11.54
2022-11-05T14:10:57.643Z,11.49
2022-11-05T14:11:57.635Z,11.41
2022-11-05T14:12:57.621Z,11.41
2022-11-05T14:13:57.598Z,11.38
2022-11-05T14:14:59.002Z,11.34
2022-11-05T14:15:57.570Z,11.43
2022-11-05T14:16:57.560Z,11.43
2022-11-05T14:17:57.544Z,11.41
2022-11-05T14:18:57.540Z,11.37
2022-11-05T14:19:57.511Z,11.31
2022-11-05T14:20:57.512Z,11.33
2022-11-05T14:21:57.514Z,11.31
2022-11-05T14:22:57.473Z,11.36
2022-11-05T14:23:57.469Z,11.34
2022-11-05T14:24:57.451Z,11.30
2022-11-05T14:25:57.469Z,11.20
2022-11-05T14:26:57.455Z,11.18
2022-11-05T14:27:57.404Z,11.18
2022-11-05T14:28:57.413Z,11.13
2022-11-05T14:29:57.388Z,11.19
2022-11-05T14:30:57.378Z,11.18
2022-11-05T14:32:12.555Z,11.19
2022-11-05T14:32:58.353Z,11.11
2022-11-05T14:33:57.335Z,11.08
2022-11-05T14:34:57.323Z,11.04
2022-11-05T14:35:57.305Z,11.01
2022-11-05T14:36:57.294Z,11.03
2022-11-05T14:37:57.272Z,11.04
2022-11-05T14:39:01.495Z,11.00
2022-11-05T14:39:58.245Z,10.98
2022-11-05T14:40:57.235Z,10.95
2022-11-05T14:41:57.226Z,10.94
2022-11-05T14:42:57.208Z,10.95
2022-11-05T14:43:57.196Z,10.94
2022-11-05T14:44:57.198Z,10.91
2022-11-05T14:45:57.167Z,10.82
2022-11-05T14:46:57.157Z,10.80
2022-11-05T14:47:57.145Z,10.79
2022-11-05T14:48:57.128Z,10.76
2022-11-05T14:49:57.109Z,10.75
2022-11-05T14:50:57.112Z,10.70
2022-11-05T14:51:57.104Z,10.65
2022-11-05T14:52:57.080Z,10.58
2022-11-05T14:53:57.079Z,10.57
2022-11-05T14:54:57.049Z,10.57
2022-11-05T14:55:57.031Z,10.49
2022-11-05T14:56:57.022Z,10.52
2022-11-05T14:57:57.014Z,10.45
2022-11-05T14:58:56.998Z,10.52
2022-11-05T14:59:56.988Z,10.43
2022-11-05T15:00:57.036Z,10.42
2022-11-05T15:01:57.948Z,10.34
2022-11-05T15:02:56.961Z,10.28
2022-11-05T15:03:56.970Z,10.28
2022-11-05T15:04:56.922Z,10.24
2022-11-05T15:05:56.902Z,10.23
2022-11-05T15:06:56.898Z,10.21
2022-11-05T15:07:56.912Z,10.18
2022-11-05T15:08:56.900Z,10.14
2022-11-05T15:09:56.852Z,10.09
2022-11-05T15:10:56.835Z,10.06
2022-11-05T15:11:56.814Z,9.99
2022-11-05T15:12:56.814Z,9.93
2022-11-05T15:13:56.835Z,9.93
2022-11-05T15:14:56.790Z,9.91
2022-11-05T15:15:56.760Z,9.85
2022-11-05T15:16:56.787Z,9.81
2022-11-05T15:17:56.774Z,9.72
2022-11-05T15:18:56.743Z,9.73
2022-11-05T15:19:56.707Z,9.65
2022-11-05T15:20:56.709Z,9.60
2022-11-05T15:21:56.698Z,9.60
2022-11-05T15:22:56.686Z,9.54
2022-11-05T15:23:56.668Z,9.50
2022-11-05T15:24:56.648Z,9.44
2022-11-05T15:25:56.638Z,9.41
2022-11-05T15:26:56.617Z,9.37
2022-11-05T15:27:56.618Z,9.36
2022-11-05T15:28:56.601Z,9.29
2022-11-05T15:29:56.579Z,9.30
2022-11-05T15:30:56.570Z,9.24
2022-11-05T15:31:56.560Z,9.22
2022-11-05T15:32:56.550Z,9.22
2022-11-05T15:33:56.519Z,9.15
2022-11-05T15:34:56.513Z,9.15
2022-11-05T15:35:56.516Z,9.14
2022-11-05T15:36:56.490Z,9.04
2022-11-05T15:38:01.695Z,9.08
2022-11-05T15:39:23.340Z,8.99
2022-11-05T15:39:57.452Z,8.95
2022-11-05T15:40:56.436Z,8.88
2022-11-05T15:41:56.422Z,8.92
2022-11-05T15:42:56.412Z,8.86
2022-11-05T15:43:56.392Z,8.78
2022-11-05T15:44:56.397Z,8.71
2022-11-05T15:45:56.373Z,8.67
2022-11-05T15:46:56.625Z,8.62
2022-11-05T15:47:56.344Z,8.59
2022-11-05T15:48:56.324Z,8.50
2022-11-05T15:49:56.313Z,8.47
2022-11-05T15:50:56.317Z,8.49
2022-11-05T15:51:56.315Z,8.42
2022-11-05T15:53:04.856Z,8.41
2022-11-05T15:54:57.262Z,8.29
2022-11-05T15:55:57.101Z,8.23
2022-11-05T15:56:56.234Z,8.24
2022-11-05T15:57:56.205Z,8.20
2022-11-05T15:58:56.196Z,8.19
2022-11-05T15:59:56.204Z,8.16
2022-11-05T16:00:56.166Z,8.14
2022-11-05T16:01:56.343Z,8.13
2022-11-05T16:02:56.136Z,8.09
2022-11-05T16:03:56.122Z,8.06
2022-11-05T16:04:56.116Z,8.09
2022-11-05T16:05:56.097Z,8.04
2022-11-05T16:06:56.093Z,8.06
2022-11-05T16:07:56.067Z,7.98
2022-11-05T16:08:56.057Z,7.98
2022-11-05T16:09:56.056Z,7.96
2022-11-05T16:10:56.277Z,7.98
2022-11-05T16:11:56.018Z,7.91
2022-11-05T16:12:56.017Z,7.94
2022-11-05T16:13:55.988Z,7.92
2022-11-05T16:14:55.978Z,7.88
2022-11-05T16:15:55.983Z,7.92
2022-11-05T16:16:55.952Z,7.88
2022-11-05T16:17:55.931Z,7.88
2022-11-05T16:18:55.920Z,7.84
2022-11-05T16:19:55.910Z,7.84
2022-11-05T16:20:56.860Z,7.86
2022-11-05T16:21:55.888Z,7.81
2022-11-05T16:22:55.862Z,7.81
2022-11-05T16:23:55.863Z,7.81
2022-11-05T16:24:55.841Z,7.83
2022-11-05T16:25:55.841Z,7.80
2022-11-05T16:27:03.600Z,7.80
2022-11-05T16:27:56.804Z,7.80
2022-11-05T16:28:55.793Z,7.78
2022-11-05T16:29:55.775Z,7.80
2022-11-05T16:30:55.772Z,7.76
2022-11-05T16:31:55.916Z,7.78
2022-11-05T16:33:01.827Z,7.76
2022-11-05T16:34:00.025Z,7.73
2022-11-05T17:46:09.599Z,7.71
2022-11-05T17:46:14.354Z,5.73
2022-11-05T17:47:14.359Z,5.76
2022-11-05T17:48:14.338Z,5.80
2022-11-05T17:49:14.331Z,5.82
2022-11-05T17:50:14.334Z,5.85
2022-11-05T17:51:14.301Z,5.88
2022-11-05T17:52:14.270Z,5.88
2022-11-05T17:53:14.612Z,5.93
2022-11-05T17:54:14.241Z,5.94
2022-11-05T17:55:15.468Z,5.94
2022-11-05T17:56:15.136Z,5.98
2022-11-05T17:57:14.235Z,6.02
2022-11-05T17:58:14.209Z,6.03
2022-11-05T17:59:14.192Z,6.06
2022-11-05T18:00:14.173Z,6.11
2022-11-05T18:01:14.209Z,6.11
2022-11-05T18:02:14.243Z,6.12
2022-11-05T18:03:14.465Z,6.16
2022-11-05T18:04:14.118Z,6.18
2022-11-05T18:05:14.105Z,6.15
2022-11-05T18:06:14.083Z,6.15
2022-11-05T18:07:14.097Z,6.18
2022-11-05T18:08:14.053Z,6.13
2022-11-05T18:09:14.046Z,6.15
2022-11-05T18:10:14.034Z,6.12
2022-11-05T18:11:14.025Z,6.11
2022-11-05T18:12:14.012Z,6.12
2022-11-05T18:13:14.363Z,6.15
2022-11-05T18:14:13.985Z,6.12
2022-11-05T18:15:13.975Z,6.11
2022-11-05T18:16:13.964Z,6.13
2022-11-05T18:17:13.939Z,6.09
2022-11-05T18:18:13.926Z,6.11
2022-11-05T18:19:13.921Z,6.06
2022-11-05T18:20:18.577Z,6.08
2022-11-05T18:21:14.875Z,6.06
2022-11-05T18:22:13.867Z,6.03
2022-11-05T18:23:14.133Z,6.03
2022-11-05T18:24:13.844Z,5.98
2022-11-05T18:25:13.838Z,6.00
2022-11-05T18:26:13.847Z,6.00
2022-11-05T18:27:13.799Z,5.95
2022-11-05T18:28:14.167Z,5.94
2022-11-05T18:29:13.787Z,5.93
2022-11-05T18:30:13.784Z,5.91
2022-11-05T18:31:17.867Z,5.93
2022-11-05T18:32:13.758Z,5.94
2022-11-05T18:33:14.090Z,5.91
2022-11-05T18:34:13.715Z,5.93
2022-11-05T18:35:13.699Z,5.93
2022-11-05T18:36:13.679Z,5.93
2022-11-05T18:37:13.682Z,5.95
2022-11-05T18:38:13.664Z,5.94
2022-11-05T18:39:13.639Z,5.94
2022-11-05T18:40:13.633Z,5.93
2022-11-05T18:41:13.619Z,5.87
2022-11-05T18:42:13.601Z,5.90
2022-11-05T18:43:13.878Z,5.87
2022-11-05T18:44:13.580Z,5.90
2022-11-05T18:45:13.598Z,5.88
2022-11-05T18:46:35.815Z,5.90
2022-11-05T18:47:15.752Z,5.85
2022-11-05T18:48:13.666Z,5.85
2022-11-05T18:49:13.519Z,5.84
2022-11-05T18:50:13.511Z,5.85
2022-11-05T18:51:13.481Z,5.90
2022-11-05T18:52:13.470Z,5.88
2022-11-05T18:53:13.514Z,5.94
2022-11-05T18:54:13.451Z,5.94
2022-11-05T18:55:13.433Z,5.94
2022-11-05T18:56:13.444Z,5.95
2022-11-05T18:57:13.403Z,5.94
2022-11-05T18:58:13.747Z,5.90
2022-11-05T18:59:35.135Z,5.94
2022-11-05T19:00:14.364Z,5.90
2022-11-05T19:01:13.388Z,5.90